CheckWX is a tool to help pilots better visualize weather data.  It is not intended as a substitute for an official pre-flight weather briefing.

14:00:43 UTC

SCTE METAR
El Tepual Airport
Puerto Montt, Chile
Current

1 hour ago

SCTE 071300Z 20010KT 9999 BKN025 13/10 Q1020 NOSIG
Observed
Dec-7 @ 13:00 UTC
Wind
  • 200° at 10 KTS
Visibility
10,000+ meters
Flight Rules
MVFR
Cloud Levels
  • Broken at 2,500' AGL
Temperature
13°C / 55°F
Dewpoint
10°C / 50°F
Humidity
82%
Altimeter
30.12" Hg
Pressure
1019.92 hPa
Previous

2 hours ago

SCTE 071200Z 20011KT 9999 BKN015 12/10 Q1020 NOSIG
Observed
Dec-7 @ 12:00 UTC
Wind
  • 200° at 11 KTS
Visibility
10,000+ meters
Flight Rules
MVFR
Cloud Levels
  • Broken at 1,500' AGL
Temperature
12°C / 54°F
Dewpoint
10°C / 50°F
Humidity
88%
Altimeter
30.12" Hg
Pressure
1019.92 hPa
Previous

3 hours ago

SCTE 071100Z 20007KT 170V230 9999 OVC010 11/10 Q1020 NOSIG
Observed
Dec-7 @ 11:00 UTC
Wind
  • 200° at 7 KTS
Visibility
10,000+ meters
Flight Rules
MVFR
Cloud Levels
  • Overcast at 1,000' AGL
Temperature
11°C / 52°F
Dewpoint
10°C / 50°F
Humidity
94%
Altimeter
30.12" Hg
Pressure
1019.92 hPa